Time;durP1;ratioP1;P1;durP2;ratioP2;P2;SDS_P1;SDS_P2;PMS_P1;PMS_P2;Temp;Humidity;BMP_temperature;BMP_pressure;BME280_temperature;BME280_humidity;BME280_pressure;Samples;Min_cycle;Max_cycle;Signal;HPM_P1;HPM_P2
2023/04/09 00:00:23;;;;;;;1999.90;999.90;;;3.50;96.80;;;;;;5051513;28;20060;-78
2023/04/09 00:02:48;;;;;;;1999.90;999.90;;;3.40;97.00;;;;;;5032316;28;20033;-76
2023/04/09 00:05:14;;;;;;;1999.90;999.90;;;3.20;96.90;;;;;;5030431;28;20067;-76
2023/04/09 00:07:40;;;;;;;1999.90;999.90;;;3.10;97.10;;;;;;5031095;28;20025;-76
2023/04/09 00:10:06;;;;;;;1999.90;999.90;;;3.00;97.30;;;;;;5030964;28;20068;-76
2023/04/09 00:12:32;;;;;;;1999.90;999.90;;;3.00;97.40;;;;;;5036878;28;20053;-77
2023/04/09 00:14:57;;;;;;;1999.90;999.90;;;3.00;97.60;;;;;;5031875;28;20466;-76
2023/04/09 00:17:23;;;;;;;1999.90;999.90;;;3.00;97.70;;;;;;5030570;28;20745;-77
2023/04/09 00:19:49;;;;;;;1999.90;999.90;;;3.00;97.90;;;;;;5028283;28;20491;-77
2023/04/09 00:22:15;;;;;;;1999.90;999.90;;;3.00;97.70;;;;;;5033301;28;20112;-77
2023/04/09 00:24:40;;;;;;;1999.90;999.90;;;3.10;97.80;;;;;;5031611;28;20103;-76
2023/04/09 00:27:06;;;;;;;1999.90;999.90;;;3.10;97.70;;;;;;5034693;28;20502;-76
2023/04/09 00:29:32;;;;;;;1999.90;999.90;;;3.10;97.60;;;;;;5029324;28;20029;-76
2023/04/09 00:31:57;;;;;;;1999.90;999.90;;;3.10;97.40;;;;;;5032054;28;20495;-77
2023/04/09 00:34:23;;;;;;;1999.90;999.90;;;3.00;97.60;;;;;;5025607;28;20047;-77
2023/04/09 00:36:49;;;;;;;1999.90;999.90;;;2.90;97.40;;;;;;5036334;28;20092;-76
2023/04/09 00:39:15;;;;;;;1999.90;999.90;;;2.90;97.40;;;;;;5033048;28;20113;-77
2023/04/09 00:41:40;;;;;;;1999.90;999.90;;;2.70;97.50;;;;;;5032946;28;20046;-77
2023/04/09 00:44:06;;;;;;;1999.90;999.90;;;2.70;97.90;;;;;;5044625;28;20712;-77
2023/04/09 00:46:32;;;;;;;1999.90;999.90;;;2.80;98.30;;;;;;5028105;28;20037;-76
2023/04/09 00:48:58;;;;;;;1999.90;999.90;;;2.90;98.00;;;;;;5030743;28;20033;-78
2023/04/09 00:51:24;;;;;;;1999.90;999.90;;;2.80;98.10;;;;;;5031155;28;20026;-77
2023/04/09 00:53:49;;;;;;;1999.90;999.90;;;2.80;98.10;;;;;;5034994;28;20483;-75
2023/04/09 00:56:17;;;;;;;1999.90;999.90;;;2.90;98.30;;;;;;5047911;28;20042;-76
2023/04/09 00:58:43;;;;;;;1999.90;999.90;;;2.90;98.30;;;;;;5024617;28;20037;-77
2023/04/09 01:01:09;;;;;;;1999.90;999.90;;;2.80;98.10;;;;;;5010876;28;20052;-75
2023/04/09 01:03:35;;;;;;;1999.90;999.90;;;2.70;98.00;;;;;;5031459;28;20442;-76
2023/04/09 01:06:22;;;;;;;1999.90;999.90;;;2.70;97.90;;;;;;5034397;28;20032;-76
2023/04/09 01:08:57;;;;;;;1999.90;999.90;;;2.60;97.90;;;;;;5033703;28;20037;-76
2023/04/09 01:11:36;;;;;;;1999.90;999.90;;;2.60;98.10;;;;;;5031414;28;20030;-77
2023/04/09 01:14:22;;;;;;;1999.90;999.90;;;2.60;98.10;;;;;;5030607;28;20116;-76
2023/04/09 01:16:54;;;;;;;1999.90;999.90;;;2.60;98.10;;;;;;5031393;28;20033;-76
2023/04/09 01:19:31;;;;;;;1999.90;999.90;;;2.50;98.00;;;;;;5029382;28;20029;-76
2023/04/09 01:21:59;;;;;;;1999.90;999.90;;;2.50;98.30;;;;;;5033991;28;20056;-77
2023/04/09 01:24:34;;;;;;;1999.90;999.90;;;2.50;98.50;;;;;;5030149;28;20027;-76
2023/04/09 01:27:07;;;;;;;1999.90;999.90;;;2.70;98.90;;;;;;5037744;28;20025;-76
2023/04/09 01:29:36;;;;;;;1999.90;999.90;;;2.80;98.70;;;;;;5029332;28;20052;-76
2023/04/09 01:32:02;;;;;;;1999.90;999.90;;;2.90;98.60;;;;;;5030046;28;20033;-77
2023/04/09 01:34:29;;;;;;;1999.90;999.90;;;2.90;98.50;;;;;;5033089;28;20082;-76
2023/04/09 01:36:58;;;;;;;1999.90;999.90;;;3.00;98.50;;;;;;5035576;28;20452;-76
2023/04/09 01:39:26;;;;;;;1999.90;999.90;;;3.00;98.40;;;;;;5034456;28;20029;-76
2023/04/09 01:41:52;;;;;;;1999.90;999.90;;;3.00;98.40;;;;;;5033954;28;20067;-77
2023/04/09 01:44:19;;;;;;;1999.90;999.90;;;3.10;98.40;;;;;;5033491;28;20705;-76
2023/04/09 01:46:48;;;;;;;1999.90;999.90;;;3.20;98.30;;;;;;5031440;28;20038;-76
2023/04/09 01:49:15;;;;;;;1999.90;999.90;;;3.10;98.10;;;;;;5028796;28;20025;-77
2023/04/09 01:51:42;;;;;;;1999.90;999.90;;;3.10;98.90;;;;;;5033398;28;20079;-76
2023/04/09 01:54:08;;;;;;;1999.90;999.90;;;3.10;98.70;;;;;;5030353;28;20060;-78
2023/04/09 01:56:44;;;;;;;1999.90;999.90;;;3.20;98.70;;;;;;5033701;28;20076;-77
2023/04/09 01:59:11;;;;;;;1999.90;999.90;;;3.20;98.60;;;;;;5032342;28;20029;-76
2023/04/09 02:01:43;;;;;;;1999.90;999.90;;;3.20;98.40;;;;;;5033237;28;20041;-77
2023/04/09 02:04:25;;;;;;;1999.90;999.90;;;3.20;98.40;;;;;;5020807;28;20134;-77
2023/04/09 02:07:40;;;;;;;1999.90;999.90;;;3.20;98.40;;;;;;5031202;28;20057;-76
2023/04/09 02:10:08;;;;;;;1999.90;999.90;;;3.20;98.60;;;;;;5030482;28;20411;-77
2023/04/09 02:12:37;;;;;;;1999.90;999.90;;;3.20;98.60;;;;;;5027484;28;20044;-76
2023/04/09 02:15:04;;;;;;;1999.90;999.90;;;3.20;98.60;;;;;;5035439;28;20455;-76
2023/04/09 02:17:30;;;;;;;1999.90;999.90;;;3.10;98.60;;;;;;5045881;28;20064;-77
2023/04/09 02:19:56;;;;;;;1999.90;999.90;;;3.10;98.60;;;;;;5025848;28;20112;-76
2023/04/09 02:22:21;;;;;;;1999.90;999.90;;;3.10;98.80;;;;;;5025145;28;20026;-76
2023/04/09 02:24:47;;;;;;;1999.90;999.90;;;3.00;98.70;;;;;;5047445;28;20513;-76
2023/04/09 02:27:13;;;;;;;1999.90;999.90;;;3.10;99.00;;;;;;5033308;28;20156;-77
2023/04/09 02:29:39;;;;;;;1999.90;999.90;;;3.10;98.90;;;;;;5029781;28;20071;-76
2023/04/09 02:32:05;;;;;;;1999.90;999.90;;;3.00;99.00;;;;;;5031298;28;20025;-76
2023/04/09 02:34:31;;;;;;;1999.90;999.90;;;3.20;99.30;;;;;;5033232;28;20041;-76
2023/04/09 02:36:56;;;;;;;1999.90;999.90;;;3.30;98.80;;;;;;5030344;28;20056;-77
2023/04/09 02:39:22;;;;;;;1999.90;999.90;;;3.30;98.60;;;;;;5040625;28;20030;-77
2023/04/09 02:41:48;;;;;;;1999.90;999.90;;;3.40;98.70;;;;;;5029764;28;20068;-76
2023/04/09 02:44:13;;;;;;;1999.90;999.90;;;3.40;98.30;;;;;;5030596;28;20372;-77
2023/04/09 02:46:40;;;;;;;1999.90;999.90;;;3.40;98.20;;;;;;5027199;28;20038;-76
2023/04/09 02:49:06;;;;;;;1999.90;999.90;;;3.40;97.90;;;;;;5032870;28;20024;-76
2023/04/09 02:51:34;;;;;;;1999.90;999.90;;;3.30;97.90;;;;;;5030291;28;20030;-76
2023/04/09 02:54:00;;;;;;;1999.90;999.90;;;3.10;98.20;;;;;;5033957;28;20157;-76
2023/04/09 02:56:26;;;;;;;1999.90;999.90;;;3.10;98.40;;;;;;5034866;28;20037;-76
2023/04/09 02:58:52;;;;;;;1999.90;999.90;;;3.10;98.50;;;;;;5029131;28;20090;-76
2023/04/09 03:01:19;;;;;;;1999.90;999.90;;;3.10;98.30;;;;;;5029980;28;20056;-76
2023/04/09 03:03:45;;;;;;;1999.90;999.90;;;3.30;98.60;;;;;;5024890;28;20032;-76
2023/04/09 03:06:10;;;;;;;1999.90;999.90;;;3.20;98.40;;;;;;5011827;28;20026;-76
2023/04/09 03:08:36;;;;;;;1999.90;999.90;;;3.30;98.20;;;;;;5030813;28;20028;-77
2023/04/09 03:11:02;;;;;;;1999.90;999.90;;;3.20;98.10;;;;;;5030210;28;20053;-77
2023/04/09 03:13:27;;;;;;;1999.90;999.90;;;3.40;98.20;;;;;;5030276;28;20123;-77
2023/04/09 03:15:53;;;;;;;1999.90;999.90;;;3.40;98.10;;;;;;5032098;28;20124;-76
2023/04/09 03:18:19;;;;;;;1999.90;999.90;;;3.40;98.00;;;;;;5028752;28;20033;-76
2023/04/09 03:20:45;;;;;;;1999.90;999.90;;;3.40;98.30;;;;;;5028968;28;20039;-76
2023/04/09 03:23:10;;;;;;;1999.90;999.90;;;3.30;98.00;;;;;;5031795;28;20060;-76
2023/04/09 03:25:36;;;;;;;1999.90;999.90;;;3.30;98.20;;;;;;5026553;28;20897;-76
2023/04/09 03:28:02;;;;;;;1999.90;999.90;;;3.30;98.40;;;;;;5027244;28;20044;-77
2023/04/09 03:30:28;;;;;;;1999.90;999.90;;;3.30;98.30;;;;;;5025627;28;20030;-77
2023/04/09 03:32:54;;;;;;;1999.90;999.90;;;3.40;98.60;;;;;;5020793;28;20046;-76
2023/04/09 03:35:20;;;;;;;1999.90;999.90;;;3.50;98.50;;;;;;5030063;28;20088;-76
2023/04/09 03:37:45;;;;;;;1999.90;999.90;;;3.60;98.30;;;;;;5033309;28;20032;-76
2023/04/09 03:40:12;;;;;;;1999.90;999.90;;;3.70;98.20;;;;;;5036018;28;20522;-76
2023/04/09 03:42:37;;;;;;;1999.90;999.90;;;3.70;98.10;;;;;;5030239;28;20037;-77
2023/04/09 03:45:04;;;;;;;1999.90;999.90;;;3.70;98.10;;;;;;5039767;28;20055;-76
2023/04/09 03:47:30;;;;;;;1999.90;999.90;;;3.50;98.20;;;;;;5032055;28;20059;-78
2023/04/09 03:49:56;;;;;;;1999.90;999.90;;;3.50;98.20;;;;;;5032646;28;20064;-76
2023/04/09 03:52:21;;;;;;;1999.90;999.90;;;3.60;98.20;;;;;;5032680;28;20030;-76
2023/04/09 03:54:47;;;;;;;1999.90;999.90;;;3.80;98.10;;;;;;5034808;28;20523;-77
2023/04/09 03:57:13;;;;;;;1999.90;999.90;;;3.70;97.90;;;;;;5034097;28;20484;-77
2023/04/09 03:59:38;;;;;;;1999.90;999.90;;;3.50;97.90;;;;;;5031178;28;20113;-77
2023/04/09 04:02:04;;;;;;;1999.90;999.90;;;3.50;98.50;;;;;;5029136;28;20053;-77
2023/04/09 04:04:30;;;;;;;1999.90;999.90;;;3.60;98.60;;;;;;5032575;28;20038;-77
2023/04/09 04:06:55;;;;;;;1999.90;999.90;;;3.50;98.30;;;;;;5032989;28;20041;-77
2023/04/09 04:09:21;;;;;;;1999.90;999.90;;;3.60;98.20;;;;;;5039898;28;20026;-76
2023/04/09 04:11:47;;;;;;;1999.90;999.90;;;3.60;98.40;;;;;;5031779;28;20025;-76
2023/04/09 04:14:12;;;;;;;1999.90;999.90;;;3.50;98.30;;;;;;5024467;28;20132;-76
2023/04/09 04:16:41;;;;;;;1999.90;999.90;;;3.40;98.50;;;;;;5027382;28;20052;-76
2023/04/09 04:19:07;;;;;;;1999.90;999.90;;;3.20;98.70;;;;;;5029678;28;20055;-76
2023/04/09 04:21:32;;;;;;;1999.90;999.90;;;3.20;98.80;;;;;;5029026;28;20525;-77
2023/04/09 04:23:58;;;;;;;1999.90;999.90;;;3.30;98.70;;;;;;5034813;28;20037;-76
2023/04/09 04:26:24;;;;;;;1999.90;999.90;;;3.10;98.70;;;;;;5030270;28;20105;-77
2023/04/09 04:28:50;;;;;;;1999.90;999.90;;;3.20;98.90;;;;;;5038446;28;20500;-75
2023/04/09 04:31:15;;;;;;;1999.90;999.90;;;3.20;98.80;;;;;;5030806;28;20030;-76
2023/04/09 04:33:41;;;;;;;1999.90;999.90;;;3.10;98.90;;;;;;5031180;28;20037;-76
2023/04/09 04:36:12;;;;;;;1999.90;999.90;;;2.90;99.20;;;;;;5033819;28;20053;-76
2023/04/09 04:38:40;;;;;;;1999.90;999.90;;;2.70;98.90;;;;;;5028668;28;20044;-76
2023/04/09 04:41:06;;;;;;;1999.90;999.90;;;2.70;98.90;;;;;;5023969;28;20033;-77
2023/04/09 04:43:32;;;;;;;1999.90;999.90;;;2.60;98.70;;;;;;5029959;28;20032;-77
2023/04/09 04:45:57;;;;;;;1999.90;999.90;;;2.50;98.50;;;;;;5032662;28;20068;-77
2023/04/09 04:48:23;;;;;;;1999.90;999.90;;;2.50;98.70;;;;;;5028262;28;20030;-75
2023/04/09 04:51:00;;;;;;;1999.90;999.90;;;2.40;99.00;;;;;;5035974;28;20037;-76
2023/04/09 04:53:26;;;;;;;1999.90;999.90;;;2.20;98.90;;;;;;5029376;28;20030;-76
2023/04/09 04:55:52;;;;;;;1999.90;999.90;;;2.30;98.80;;;;;;5035073;28;20134;-76
2023/04/09 04:58:18;;;;;;;1999.90;999.90;;;2.20;98.50;;;;;;5026848;28;20025;-76
2023/04/09 05:00:44;;;;;;;1999.90;999.90;;;2.20;98.60;;;;;;5033057;28;20072;-76
2023/04/09 05:03:11;;;;;;;1999.90;999.90;;;2.10;98.30;;;;;;5031588;28;20064;-76
2023/04/09 05:05:37;;;;;;;1999.90;999.90;;;2.10;98.50;;;;;;5031917;28;20117;-75
2023/04/09 05:08:03;;;;;;;1999.90;999.90;;;2.10;98.50;;;;;;5015958;28;20119;-75
2023/04/09 05:10:29;;;;;;;1999.90;999.90;;;2.00;98.50;;;;;;5030612;28;20068;-77
2023/04/09 05:12:55;;;;;;;1999.90;999.90;;;1.90;98.60;;;;;;5032729;28;20044;-77
2023/04/09 05:15:21;;;;;;;1999.90;999.90;;;1.90;99.20;;;;;;5029825;28;20042;-75
2023/04/09 05:17:46;;;;;;;1999.90;999.90;;;2.00;99.20;;;;;;5024758;28;20500;-77
2023/04/09 05:20:12;;;;;;;1999.90;999.90;;;1.90;99.20;;;;;;5042848;28;20025;-77
2023/04/09 05:22:38;;;;;;;1999.90;999.90;;;2.00;99.40;;;;;;5023791;28;20029;-76
2023/04/09 05:25:04;;;;;;;1999.90;999.90;;;2.00;99.20;;;;;;5027015;28;20495;-76
2023/04/09 05:27:30;;;;;;;1999.90;999.90;;;1.90;99.10;;;;;;5029530;28;20030;-76
2023/04/09 05:29:55;;;;;;;1999.90;999.90;;;1.80;99.30;;;;;;5029908;28;20040;-75
2023/04/09 05:32:25;;;;;;;1999.90;999.90;;;1.80;99.60;;;;;;5024524;28;20565;-75
2023/04/09 05:34:51;;;;;;;1999.90;999.90;;;1.80;99.70;;;;;;5024283;28;20092;-76
2023/04/09 05:37:16;;;;;;;1999.90;999.90;;;1.80;99.80;;;;;;5023910;28;20332;-77
2023/04/09 05:39:42;;;;;;;1999.90;999.90;;;1.90;99.90;;;;;;5018988;28;20030;-77
2023/04/09 05:42:08;;;;;;;1999.90;999.90;;;2.00;99.90;;;;;;5020236;28;20087;-75
2023/04/09 05:44:33;;;;;;;1999.90;999.90;;;2.10;99.90;;;;;;5023500;28;20033;-75
2023/04/09 05:46:59;;;;;;;1999.90;999.90;;;2.10;99.90;;;;;;5023828;28;20109;-74
2023/04/09 05:49:25;;;;;;;1999.90;999.90;;;2.20;99.90;;;;;;5022581;28;20034;-77
2023/04/09 05:51:51;;;;;;;1999.90;999.90;;;2.30;99.90;;;;;;5027324;28;20037;-76
2023/04/09 05:54:16;;;;;;;1999.90;999.90;;;2.60;99.90;;;;;;5027157;28;20037;-78
2023/04/09 05:56:43;;;;;;;1999.90;999.90;;;3.00;99.90;;;;;;5028942;28;20037;-78
2023/04/09 05:59:08;;;;;;;1999.90;999.90;;;3.30;99.90;;;;;;5034576;28;20082;-77
2023/04/09 06:01:34;;;;;;;1999.90;999.90;;;3.50;99.90;;;;;;5029120;28;20029;-77
2023/04/09 06:04:00;;;;;;;1999.90;999.90;;;3.80;99.90;;;;;;5016434;28;20038;-78
2023/04/09 06:06:26;;;;;;;1999.90;999.90;;;3.80;99.90;;;;;;5028270;28;20033;-75
2023/04/09 06:08:51;;;;;;;1999.90;999.90;;;4.00;99.80;;;;;;5026859;28;20037;-76
2023/04/09 06:11:17;;;;;;;1999.90;999.90;;;3.90;98.90;;;;;;5023736;28;20688;-75
2023/04/09 06:13:42;;;;;;;1999.90;999.90;;;3.80;98.90;;;;;;5024587;28;20029;-74
2023/04/09 06:16:09;;;;;;;1999.90;999.90;;;3.90;98.50;;;;;;5025273;28;20061;-74
2023/04/09 06:18:36;;;;;;;1999.90;999.90;;;4.10;98.20;;;;;;5031099;28;20360;-77
2023/04/09 06:21:02;;;;;;;1999.90;999.90;;;3.80;97.90;;;;;;5028047;28;20030;-76
2023/04/09 06:23:28;;;;;;;1999.90;999.90;;;3.80;98.40;;;;;;5033159;28;20076;-77
2023/04/09 06:25:54;;;;;;;1999.90;999.90;;;3.90;98.50;;;;;;5029603;28;20496;-77
2023/04/09 06:28:20;;;;;;;1999.90;999.90;;;4.10;97.90;;;;;;5032882;28;20036;-77
2023/04/09 06:30:46;;;;;;;1999.90;999.90;;;4.60;97.10;;;;;;5029832;28;20029;-72
2023/04/09 06:33:11;;;;;;;1999.90;999.90;;;4.70;96.60;;;;;;5026967;28;20542;-74
2023/04/09 06:35:37;;;;;;;1999.90;999.90;;;4.90;95.50;;;;;;5028592;28;20073;-73
2023/04/09 06:38:03;;;;;;;1999.90;999.90;;;5.00;95.40;;;;;;5035240;28;20045;-74
2023/04/09 06:40:29;;;;;;;1999.90;999.90;;;4.90;94.60;;;;;;5028493;28;20476;-77
2023/04/09 06:42:55;;;;;;;1999.90;999.90;;;5.10;94.80;;;;;;5028444;28;20038;-75
2023/04/09 06:45:21;;;;;;;1999.90;999.90;;;4.80;94.20;;;;;;5030172;28;20088;-74
2023/04/09 06:47:47;;;;;;;1999.90;999.90;;;4.90;95.00;;;;;;5036220;28;20033;-74
2023/04/09 06:50:12;;;;;;;1999.90;999.90;;;4.80;94.60;;;;;;5032188;28;20471;-75
2023/04/09 06:52:38;;;;;;;1999.90;999.90;;;4.70;94.40;;;;;;5031706;28;20033;-77
2023/04/09 06:55:04;;;;;;;1999.90;999.90;;;4.50;94.20;;;;;;5022073;28;20033;-73
2023/04/09 06:57:30;;;;;;;1999.90;999.90;;;4.60;95.00;;;;;;5030666;28;20025;-73
2023/04/09 06:59:56;;;;;;;1999.90;999.90;;;4.60;94.40;;;;;;5026696;28;20110;-72
2023/04/09 07:02:22;;;;;;;1999.90;999.90;;;4.70;95.20;;;;;;5025405;28;20103;-74
2023/04/09 07:04:47;;;;;;;1999.90;999.90;;;4.80;94.60;;;;;;5027252;28;20076;-72
2023/04/09 07:07:13;;;;;;;1999.90;999.90;;;5.30;94.00;;;;;;5028817;28;20049;-74
2023/04/09 07:09:38;;;;;;;1999.90;999.90;;;5.30;93.80;;;;;;5030386;28;20399;-75
2023/04/09 07:12:04;;;;;;;1999.90;999.90;;;5.80;93.00;;;;;;5041213;28;20033;-73
2023/04/09 07:14:30;;;;;;;1999.90;999.90;;;5.70;92.10;;;;;;5029631;28;20075;-74
2023/04/09 07:16:55;;;;;;;1999.90;999.90;;;5.70;92.40;;;;;;5036353;28;20471;-74
2023/04/09 07:19:21;;;;;;;1999.90;999.90;;;5.70;91.80;;;;;;5033677;28;20040;-73
2023/04/09 07:21:47;;;;;;;1999.90;999.90;;;5.70;91.90;;;;;;5039195;28;20040;-73
2023/04/09 07:24:12;;;;;;;1999.90;999.90;;;5.50;91.30;;;;;;5032711;28;20034;-73
2023/04/09 07:26:38;;;;;;;1999.90;999.90;;;5.50;91.60;;;;;;5017309;28;20030;-73
2023/04/09 07:29:04;;;;;;;1999.90;999.90;;;5.50;91.50;;;;;;5031216;28;20021;-75
2023/04/09 07:31:30;;;;;;;1999.90;999.90;;;5.40;91.70;;;;;;5039794;28;20030;-74
2023/04/09 07:33:56;;;;;;;1999.90;999.90;;;5.60;90.90;;;;;;5033675;28;20041;-74
2023/04/09 07:36:21;;;;;;;1999.90;999.90;;;5.60;90.60;;;;;;5036488;28;20051;-73
2023/04/09 07:38:47;;;;;;;1999.90;999.90;;;5.70;91.10;;;;;;5031759;28;20580;-73
2023/04/09 07:41:13;;;;;;;1999.90;999.90;;;5.50;91.40;;;;;;5033071;28;20036;-75
2023/04/09 07:43:39;;;;;;;1999.90;999.90;;;5.50;91.40;;;;;;5025771;28;20093;-73
2023/04/09 07:46:05;;;;;;;1999.90;999.90;;;5.50;91.70;;;;;;5030914;28;20041;-75
2023/04/09 07:48:31;;;;;;;1999.90;999.90;;;6.10;91.00;;;;;;5029968;28;20038;-73
2023/04/09 07:50:56;;;;;;;1999.90;999.90;;;6.40;90.10;;;;;;5030278;28;20451;-73
2023/04/09 07:53:22;;;;;;;1999.90;999.90;;;6.80;88.80;;;;;;5032747;28;20063;-74
2023/04/09 07:55:50;;;;;;;1999.90;999.90;;;6.80;87.10;;;;;;5030261;28;20064;-73
2023/04/09 07:58:16;;;;;;;1999.90;999.90;;;7.00;86.50;;;;;;5029897;28;20029;-73
2023/04/09 08:00:42;;;;;;;1999.90;999.90;;;7.20;86.40;;;;;;5025277;28;20022;-74
2023/04/09 08:03:08;;;;;;;1999.90;999.90;;;7.10;86.10;;;;;;5028838;28;20034;-73
2023/04/09 08:05:35;;;;;;;1999.90;999.90;;;6.80;86.00;;;;;;5032703;28;20403;-73
2023/04/09 08:08:00;;;;;;;1999.90;999.90;;;6.80;84.90;;;;;;5023704;28;20040;-74
2023/04/09 08:10:26;;;;;;;1999.90;999.90;;;6.90;83.90;;;;;;5035099;28;20430;-73
2023/04/09 08:12:52;;;;;;;1999.90;999.90;;;6.80;83.90;;;;;;5033721;28;20033;-74
2023/04/09 08:15:18;;;;;;;1999.90;999.90;;;6.80;84.30;;;;;;5032041;28;20528;-75
2023/04/09 08:17:43;;;;;;;1999.90;999.90;;;6.70;85.40;;;;;;5033545;28;20036;-75
2023/04/09 08:20:10;;;;;;;1999.90;999.90;;;6.80;84.20;;;;;;5034705;28;20406;-77
2023/04/09 08:22:35;;;;;;;1999.90;999.90;;;6.70;84.90;;;;;;5029817;28;20029;-74
2023/04/09 08:25:01;;;;;;;1999.90;999.90;;;6.90;85.10;;;;;;5029625;28;20029;-75
2023/04/09 08:27:27;;;;;;;1999.90;999.90;;;6.90;85.80;;;;;;5046993;28;20458;-72
2023/04/09 08:29:52;;;;;;;1999.90;999.90;;;6.80;84.30;;;;;;5031723;28;20565;-74
2023/04/09 08:32:18;;;;;;;1999.90;999.90;;;6.70;84.70;;;;;;5028953;28;20462;-74
2023/04/09 08:34:44;;;;;;;1999.90;999.90;;;6.60;85.00;;;;;;5036835;28;20056;-72
2023/04/09 08:37:10;;;;;;;1999.90;999.90;;;6.80;84.00;;;;;;5035290;28;20440;-75
2023/04/09 08:39:35;;;;;;;1999.90;999.90;;;7.60;82.60;;;;;;5028362;28;20041;-72
2023/04/09 08:42:05;;;;;;;1999.90;999.90;;;8.10;81.00;;;;;;5033440;28;20145;-72
2023/04/09 08:44:31;;;;;;;1999.90;999.90;;;8.10;79.90;;;;;;5033225;28;20104;-73
2023/04/09 08:46:58;;;;;;;1999.90;999.90;;;7.40;81.10;;;;;;5030099;28;20137;-73
2023/04/09 08:49:23;;;;;;;1999.90;999.90;;;7.30;81.40;;;;;;5047954;28;20080;-72
2023/04/09 08:51:49;;;;;;;1999.90;999.90;;;7.60;80.30;;;;;;5032791;28;20447;-72
2023/04/09 08:54:17;;;;;;;1999.90;999.90;;;7.80;79.80;;;;;;5028423;28;20064;-73
2023/04/09 08:56:43;;;;;;;1999.90;999.90;;;8.20;77.50;;;;;;5036211;28;20029;-72
2023/04/09 08:59:09;;;;;;;1999.90;999.90;;;8.10;78.10;;;;;;5030280;28;20037;-71
2023/04/09 09:01:35;;;;;;;1999.90;999.90;;;7.90;77.40;;;;;;5034169;28;20502;-74
2023/04/09 09:04:08;;;;;;;1999.90;999.90;;;8.00;78.60;;;;;;5032309;28;20033;-72
2023/04/09 09:06:36;;;;;;;1999.90;999.90;;;8.30;77.90;;;;;;5038225;28;20044;-73
2023/04/09 09:09:02;;;;;;;1999.90;999.90;;;8.50;75.40;;;;;;5030756;28;20525;-72
2023/04/09 09:11:29;;;;;;;1999.90;999.90;;;9.40;75.30;;;;;;5032960;28;20033;-72
2023/04/09 09:14:15;;;;;;;1999.90;999.90;;;9.40;74.20;;;;;;5030138;28;20037;-72
2023/04/09 09:17:09;;;;;;;1999.90;999.90;;;9.60;74.30;;;;;;5030712;28;20057;-79
2023/04/09 09:19:35;;;;;;;1999.90;999.90;;;9.70;73.30;;;;;;5030375;28;20053;-74
2023/04/09 09:22:06;;;;;;;1999.90;999.90;;;9.80;72.60;;;;;;5032817;28;20499;-72
2023/04/09 09:24:33;;;;;;;1999.90;999.90;;;9.90;72.00;;;;;;5031820;28;20120;-73
2023/04/09 09:27:02;;;;;;;1999.90;999.90;;;9.60;72.10;;;;;;5033792;28;20040;-72
2023/04/09 09:29:28;;;;;;;1999.90;999.90;;;9.90;71.30;;;;;;5027607;28;20127;-72
2023/04/09 09:31:55;;;;;;;1999.90;999.90;;;9.80;72.30;;;;;;5030910;28;20471;-74
2023/04/09 09:34:22;;;;;;;1999.90;999.90;;;10.00;71.30;;;;;;5031815;28;20026;-72
2023/04/09 09:36:48;;;;;;;1999.90;999.90;;;10.30;71.20;;;;;;5033446;28;20554;-73
2023/04/09 09:39:16;;;;;;;1999.90;999.90;;;9.90;70.60;;;;;;5034678;28;20041;-70
2023/04/09 09:41:43;;;;;;;1999.90;999.90;;;10.30;68.90;;;;;;5028394;28;20078;-73
2023/04/09 09:44:10;;;;;;;1999.90;999.90;;;10.40;69.20;;;;;;5032648;28;20036;-71
2023/04/09 09:46:41;;;;;;;1999.90;999.90;;;10.60;68.80;;;;;;5037457;28;20036;-73
2023/04/09 09:49:07;;;;;;;;;;;11.00;65.50;;;;;;5043741;28;20025;-70
2023/04/09 09:51:36;;;;;;;1999.90;999.90;;;10.30;64.20;;;;;;5032856;28;21521;-71
2023/04/09 09:54:02;;;;;;;1999.90;999.90;;;10.10;67.40;;;;;;5028303;28;20601;-71
2023/04/09 09:56:34;;;;;;;1999.90;999.90;;;10.30;65.80;;;;;;5032905;28;20033;-71
2023/04/09 09:59:06;;;;;;;1999.90;999.90;;;9.90;66.40;;;;;;5029979;28;20037;-71
2023/04/09 10:01:33;;;;;;;1999.90;999.90;;;9.60;67.60;;;;;;5028250;28;20060;-73
2023/04/09 10:04:00;;;;;;;1999.90;999.90;;;9.80;66.60;;;;;;5032478;28;20037;-71
2023/04/09 10:06:26;;;;;;;1999.90;999.90;;;10.20;66.10;;;;;;5032480;28;20565;-71
2023/04/09 10:08:57;;;;;;;1999.90;999.90;;;11.00;62.80;;;;;;5032409;28;20529;-72
2023/04/09 10:11:23;;;;;;;1999.90;999.90;;;11.90;63.40;;;;;;5032405;28;20025;-72
2023/04/09 10:13:57;;;;;;;1999.90;999.90;;;12.30;61.10;;;;;;5029509;28;20037;-71
2023/04/09 10:16:25;;;;;;;1999.90;999.90;;;13.20;59.30;;;;;;5032867;28;20022;-72
2023/04/09 10:18:52;;;;;;;1999.90;999.90;;;13.40;56.90;;;;;;5034649;28;20546;-72
2023/04/09 10:21:17;;;;;;;1999.90;999.90;;;12.40;58.40;;;;;;5032493;28;20131;-74
2023/04/09 10:23:47;;;;;;;1999.90;999.90;;;11.90;61.00;;;;;;5034554;28;20112;-72
2023/04/09 10:26:12;;;;;;;1999.90;999.90;;;11.80;59.70;;;;;;5032662;28;20483;-72
2023/04/09 10:28:38;;;;;;;1999.90;999.90;;;11.80;60.00;;;;;;5033411;28;20093;-72
2023/04/09 10:31:06;;;;;;;1999.90;999.90;;;11.70;59.50;;;;;;5034945;28;20388;-72
2023/04/09 10:33:32;;;;;;;1999.90;999.90;;;11.80;57.30;;;;;;5030380;28;20038;-71
2023/04/09 10:36:09;;;;;;;1999.90;999.90;;;11.90;59.80;;;;;;5033214;28;20558;-71
2023/04/09 10:38:40;;;;;;;1999.90;999.90;;;12.60;57.20;;;;;;5035165;28;20040;-72
2023/04/09 10:41:06;;;;;;;;;;;12.10;57.40;;;;;;5032598;28;20025;-68
2023/04/09 10:43:35;;;;;;;1999.90;999.90;;;11.70;58.60;;;;;;5029584;28;19924;-68
2023/04/09 10:46:02;;;;;;;1999.90;999.90;;;11.60;56.90;;;;;;5036922;28;20041;-70
2023/04/09 10:48:32;;;;;;;1999.90;999.90;;;11.50;60.10;;;;;;5036130;28;20056;-69
2023/04/09 10:50:57;;;;;;;1999.90;999.90;;;11.60;57.60;;;;;;5038549;28;20114;-68
2023/04/09 10:53:24;;;;;;;1999.90;999.90;;;11.80;57.60;;;;;;5035512;28;20117;-75
2023/04/09 10:55:52;;;;;;;1999.90;999.90;;;12.20;55.00;;;;;;5032727;28;20064;-72
2023/04/09 10:58:18;;;;;;;1999.90;999.90;;;12.60;55.20;;;;;;5038161;28;20065;-73
2023/04/09 11:00:46;;;;;;;1999.90;999.90;;;12.80;54.20;;;;;;5035337;28;20060;-76
2023/04/09 11:03:22;;;;;;;1999.90;999.90;;;13.70;53.90;;;;;;5031360;28;20079;-76
2023/04/09 11:06:01;;;;;;;1999.90;999.90;;;14.30;51.10;;;;;;5036224;28;20030;-78
2023/04/09 11:08:33;;;;;;;1999.90;999.90;;;14.90;46.90;;;;;;5038114;28;20040;-76
2023/04/09 11:11:00;;;;;;;1999.90;999.90;;;15.50;43.50;;;;;;5037212;28;20025;-76
2023/04/09 11:13:26;;;;;;;1999.90;999.90;;;15.10;45.20;;;;;;5033009;28;20466;-82
2023/04/09 11:15:54;;;;;;;1999.90;999.90;;;14.60;44.70;;;;;;5035668;28;20037;-77
2023/04/09 11:18:22;;;;;;;1999.90;999.90;;;14.30;48.30;;;;;;5033178;28;20037;-79
2023/04/09 11:20:48;;;;;;;1999.90;999.90;;;15.10;46.90;;;;;;5035940;28;20037;-76
2023/04/09 11:23:16;;;;;;;1999.90;999.90;;;16.10;43.50;;;;;;5033191;28;20082;-76
2023/04/09 11:25:47;;;;;;;1999.90;999.90;;;16.60;42.10;;;;;;5035585;28;20025;-82
2023/04/09 11:28:13;;;;;;;1999.90;999.90;;;15.70;41.00;;;;;;5031498;28;20112;-77
2023/04/09 11:30:38;;;;;;;1999.90;999.90;;;16.50;43.20;;;;;;5032828;28;20033;-75
2023/04/09 11:33:07;;;;;;;1999.90;999.90;;;15.80;41.20;;;;;;5032747;28;20415;-78
2023/04/09 11:35:35;;;;;;;1999.90;999.90;;;15.80;41.20;;;;;;5032334;28;20056;-77
2023/04/09 11:38:05;;;;;;;1999.90;999.90;;;16.40;40.30;;;;;;5031673;28;20048;-79
2023/04/09 11:40:32;;;;;;;1999.90;999.90;;;15.80;40.70;;;;;;5033132;28;20026;-83
2023/04/09 11:42:58;;;;;;;1999.90;999.90;;;15.20;40.30;;;;;;5033115;28;20084;-83
2023/04/09 11:45:26;;;;;;;1999.90;999.90;;;14.50;42.10;;;;;;5034190;28;20431;-82
2023/04/09 11:47:52;;;;;;;1999.90;999.90;;;16.20;40.50;;;;;;5031639;28;20076;-78
2023/04/09 11:50:18;;;;;;;1999.90;999.90;;;16.70;39.90;;;;;;5036647;28;20025;-78
2023/04/09 11:52:45;;;;;;;1999.90;999.90;;;16.70;37.60;;;;;;5038437;28;20673;-77
2023/04/09 11:55:11;;;;;;;1999.90;999.90;;;17.20;40.00;;;;;;5032204;28;20036;-79
2023/04/09 11:57:42;;;;;;;1999.90;999.90;;;16.90;37.10;;;;;;5031991;28;20029;-77
2023/04/09 12:00:11;;;;;;;1999.90;999.90;;;17.50;35.50;;;;;;5032940;28;20033;-75
2023/04/09 12:02:39;;;;;;;1999.90;999.90;;;18.10;37.70;;;;;;5035611;28;20030;-82
2023/04/09 12:05:07;;;;;;;1999.90;999.90;;;18.00;34.10;;;;;;5035148;28;20029;-82